Kezdőlap
METAR-TAF:

METAR-TAF

Repülőterek :

Sussex Airport

Sussex, New Jersey, Amerikai Egyesült Államok

földrajzi szélesség: 41-12-01N, földrajzi hosszúság: 074-37-23W, magasság: 128 m

Jelenlegi meteorológiai megfigyelések

A jelentés 28 perccel ezelõtt készült, 22:53 UTC
Dél-délnyugati szél 7 kt
Hőmérséklet -4°C
Páratartalom 86%
Légköri nyomás 1016 hPa
Látótávolság: 1.6 km
enyhe havazás, Párásság

METAR: KFWN 182253Z AUTO 20007KT 1SM -SN BR VV018 M04/M06 A3001 RMK AO2 PRESFR SLP167 P0004 T10391061

Idő: 18:21 (23:21 UTC)


TAF: hiányzik

Meteorológiai megfigyelések és előrejelzések több, mint 4000 repülőtéren (METAR és TAF jelentéseket).

A térképen piros és sárga pontok jelzik az elérhető meteorológiai állomásokat.

Mozgassa az egeret a pont fölött, hogy megjelenjen az állomás neve.

Azután kattintson az időjárási megfigyelések és előrejelzések megtekintéséhez.

A térkép megváltoztatása: kattintson a fekete keresztel jelölt zöld gombra ráközelítéshez, a vonallal jelölt zöld gombra távolításhoz, vagy a zöld nyilakra a szomszédos térképek eléréséhez.


METAR-TAF: